Terminal Aerodrome Forecast
Issued by NWS Portland, ME

Home | Current Version | Previous Version | Text Only | Print | Product List | Glossary On
Versions: 1 2 3 4 5 6 7 8 9 10 11 12 13 14 15 16 17 18 19 20
000
FTUS41 KGYX 201740
TAFCON
TAF
KCON 201740Z 2018/2118 26006KT P6SM SCT200
     FM202300 VRB03KT P6SM BKN200
     FM210900 VRB03KT P6SM OVC030
     FM211500 05005KT 5SM -SHRA BR OVC020=

USA.gov is the U.S. government's official web portal to all federal, state and local government web resources and services.